This is the latest recevied weather packets stored in our database for station/object AA7DG. If no packets are shown the sender has not sent any weather packets the latest 10 day(s).
| Time | Temp. | Humidity | Pressure | Rain* | Wind** | Luminosity | Snow |
|---|---|---|---|---|---|---|---|
| 1777832702 | 24.44° C | 29% | 1014.6 hPa | - | - | - | - |
| 1777832401 | 23.89° C | 30% | 1014.6 hPa | - | - | - | - |
| 1777825801 | 16.67° C | 49% | 1015.8 hPa | - | - | - | - |
| 1777824300 | 15° C | 56% | 1016.3 hPa | - | - | - | - |
| 1777823403 | 14.44° C | 60% | 1016.3 hPa | - | - | - | - |
| 1777821903 | 13.89° C | 65% | 1016.6 hPa | - | - | - | - |
| 1777820401 | 12.22° C | 71% | 1016.6 hPa | - | - | - | - |
| 1777815306 | 6.11° C | 90% | 1016.3 hPa | - | - | - | - |
| 1777814101 | 6.11° C | 90% | 1016.3 hPa | - | - | - | - |
| 1777811713 | 6.11° C | 89% | 1015.9 hPa | - | - | - | - |
| 1777811406 | 6.11° C | 89% | 1015.9 hPa | - | - | - | - |
| 1777810502 | 6.67° C | 88% | 1015.9 hPa | - | - | - | - |
| 1777809902 | 6.67° C | 88% | 1016 hPa | - | - | - | - |
| 1777809301 | 6.67° C | 87% | 1016.3 hPa | - | - | - | - |
| 1777808401 | 7.22° C | 87% | 1016.3 hPa | - | - | - | - |
| 1777806306 | 7.78° C | 85% | 1016.3 hPa | - | - | - | - |
| 1777806002 | 7.78° C | 85% | 1016.3 hPa | - | - | - | - |
| 1777805402 | 7.78° C | 85% | 1016.3 hPa | - | - | - | - |
| 1777805102 | 8.33° C | 85% | 1016.3 hPa | - | - | - | - |
| 1777803902 | 8.33° C | 83% | 1015.9 hPa | - | - | - | - |
| 1777803601 | 8.33° C | 83% | 1016.1 hPa | - | - | - | - |
| 1777798807 | 10° C | 77% | 1015.9 hPa | - | - | - | - |
| 1777797301 | 10.56° C | 75% | 1015.8 hPa | - | - | - | - |
| 1777794607 | 11.67° C | 71% | 1015.8 hPa | - | - | - | - |
| 1777794305 | 11.67° C | 71% | 1015.9 hPa | - | - | - | - |
* Rain since midnight (hover to see other rain measurements)
** Current wind speed in m/s (hover to see current wind gust speed)